Terminal Aerodrome Forecast
Issued by NWS

Home | Current Version | Previous Version | Text Only | Print | Product List | Glossary Off
Versions: 1 2 3 4 5 6 7 8 9 10 11 12 13 14 15 16 17 18 19 20

000
FTUS43 KGRB 270400 AAA
TAFAUW
TAF AMD
KAUW 270425Z 2704/2724 09003KT 6SM BR SCT010 OVC035
      TEMPO 2704/2707 4SM BR BKN010
     FM270800 03004KT 3SM -SN BR OVC003
     FM271700 VRB03KT P6SM BKN012=

USA.gov is the U.S. government's official web portal to all federal, state and local government web resources and services.